Time;durP1;ratioP1;P1;durP2;ratioP2;P2;SDS_P1;SDS_P2;PMS_P1;PMS_P2;Temp;Humidity;BMP_temperature;BMP_pressure;BME280_temperature;BME280_humidity;BME280_pressure;Samples;Min_cycle;Max_cycle;Signal;HPM_P1;HPM_P2
2023/10/16 00:01:22;;;;;;;2.20;1.48;;;;;;;11.08;57.83;94844.56;5032460;28;20127;-83
2023/10/16 00:03:49;;;;;;;1.20;1.10;;;;;;;11.02;57.86;94835.31;5015295;28;20091;-82
2023/10/16 00:06:14;;;;;;;1.00;0.90;;;;;;;10.96;57.98;94839.84;5030402;28;20025;-82
2023/10/16 00:08:53;;;;;;;1.38;0.95;;;;;;;10.95;58.09;94852.81;5010856;28;20028;-82
2023/10/16 00:11:23;;;;;;;1.00;0.90;;;;;;;10.87;58.17;94857.00;5029429;28;20116;-82
2023/10/16 00:13:52;;;;;;;2.15;1.00;;;;;;;10.89;58.29;94858.09;5032123;28;20029;-83
2023/10/16 00:16:20;;;;;;;1.02;1.00;;;;;;;10.92;58.16;94869.44;5014397;28;20040;-84
2023/10/16 00:18:47;;;;;;;1.40;1.20;;;;;;;10.89;58.10;94862.81;5010437;28;20043;-83
2023/10/16 00:21:13;;;;;;;1.33;1.20;;;;;;;10.86;58.03;94871.97;5022985;28;20084;-83
2023/10/16 00:23:39;;;;;;;1.20;1.10;;;;;;;10.80;58.00;94888.25;5005391;28;20083;-83
2023/10/16 00:26:21;;;;;;;1.30;1.00;;;;;;;10.88;57.88;94883.28;5026319;28;20029;-83
2023/10/16 00:28:46;;;;;;;1.45;1.00;;;;;;;10.91;57.69;94898.91;5015221;28;20625;-83
2023/10/16 00:31:20;;;;;;;1.85;1.10;;;;;;;10.98;57.61;94900.69;5030913;28;20067;-84
2023/10/16 00:33:47;;;;;;;1.25;0.98;;;;;;;11.03;57.44;94908.38;5031717;28;20040;-84
2023/10/16 00:36:12;;;;;;;1.40;1.02;;;;;;;10.99;57.17;94908.47;5013574;28;20120;-84
2023/10/16 00:38:37;;;;;;;1.75;1.40;;;;;;;10.94;57.42;94911.00;5049843;28;20448;-84
2023/10/16 00:43:40;;;;;;;1.40;1.27;;;;;;;10.79;57.52;94905.94;5033478;28;20051;-83
2023/10/16 00:46:09;;;;;;;2.92;1.40;;;;;;;10.74;57.92;94911.22;5030002;28;20024;-84
2023/10/16 00:48:38;;;;;;;2.10;1.30;;;;;;;10.72;57.97;94924.63;5048975;28;20441;-84
2023/10/16 00:51:10;;;;;;;1.45;1.20;;;;;;;10.73;57.92;94918.72;5013801;28;20086;-84
2023/10/16 00:53:40;;;;;;;1.50;1.25;;;;;;;10.72;57.75;94913.63;5009998;28;20029;-83
2023/10/16 00:56:08;;;;;;;2.60;1.40;;;;;;;10.74;58.00;94917.50;5014190;28;20029;-84
2023/10/16 00:58:37;;;;;;;2.13;1.73;;;;;;;10.70;57.84;94913.31;5029464;28;20037;-82
2023/10/16 01:01:09;;;;;;;1.90;1.67;;;;;;;10.66;57.97;94920.88;5031391;28;20024;-83
2023/10/16 01:03:36;;;;;;;2.30;2.00;;;;;;;10.61;58.04;94930.47;5007255;28;20033;-82
2023/10/16 01:06:02;;;;;;;3.80;2.40;;;;;;;10.53;58.30;94934.59;5002345;28;20029;-81
2023/10/16 01:08:28;;;;;;;3.95;2.85;;;;;;;10.52;58.28;94941.31;5013669;28;20064;-84
2023/10/16 01:10:57;;;;;;;4.82;2.83;;;;;;;10.52;58.21;94953.06;5046856;28;20122;-83
2023/10/16 01:13:26;;;;;;;2.58;2.38;;;;;;;10.49;58.33;94953.16;5009750;28;20060;-83
2023/10/16 01:15:53;;;;;;;4.78;3.35;;;;;;;10.47;58.52;94947.34;5021067;28;20111;-82
2023/10/16 01:18:18;;;;;;;3.72;3.33;;;;;;;10.41;58.62;94932.59;5030208;28;20090;-83
2023/10/16 01:20:48;;;;;;;3.53;3.20;;;;;;;10.43;58.61;94952.16;5012401;28;20033;-84
2023/10/16 01:23:18;;;;;;;3.60;3.30;;;;;;;10.41;58.63;94949.09;5031074;28;20455;-82
2023/10/16 01:25:46;;;;;;;3.70;3.28;;;;;;;10.35;58.69;94979.84;5030144;28;20075;-82
2023/10/16 01:28:12;;;;;;;4.38;3.58;;;;;;;10.30;58.83;94987.84;5012986;28;20032;-84
2023/10/16 01:30:41;;;;;;;3.85;3.00;;;;;;;10.32;58.89;94980.72;5029832;28;20062;-85
2023/10/16 01:33:07;;;;;;;5.57;3.47;;;;;;;10.33;58.83;94965.78;5028777;28;20037;-86
2023/10/16 01:35:36;;;;;;;4.13;3.72;;;;;;;10.36;58.83;94981.38;5048256;28;20411;-85
2023/10/16 01:38:14;;;;;;;4.78;3.83;;;;;;;10.27;59.44;94983.22;5029310;28;20416;-85
2023/10/16 01:40:47;;;;;;;6.03;4.22;;;;;;;10.20;59.72;94984.13;5014909;28;20049;-85
2023/10/16 01:43:15;;;;;;;10.10;5.07;;;;;;;10.20;59.68;94992.38;5012593;28;20128;-85
2023/10/16 01:45:49;;;;;;;5.30;4.57;;;;;;;10.25;59.23;94996.63;5028516;28;20278;-84
2023/10/16 01:48:19;;;;;;;6.07;4.85;;;;;;;10.17;59.66;95007.00;5015369;28;20033;-85
2023/10/16 01:50:47;;;;;;;9.02;6.30;;;;;;;10.10;60.13;95012.69;5029281;28;20025;-83
2023/10/16 01:53:15;;;;;;;6.72;5.95;;;;;;;9.97;60.29;95011.81;5015468;28;20043;-84
2023/10/16 01:55:45;;;;;;;6.03;5.38;;;;;;;9.98;59.73;95025.16;5013460;28;20029;-84
2023/10/16 01:58:12;;;;;;;7.18;5.70;;;;;;;9.98;59.71;95014.16;5029699;28;20032;-83
2023/10/16 02:00:41;;;;;;;5.78;5.10;;;;;;;9.90;59.38;95015.53;5017274;28;20103;-82
2023/10/16 02:03:08;;;;;;;5.80;5.20;;;;;;;9.95;59.30;95020.50;5027651;28;20033;-82
2023/10/16 02:05:33;;;;;;;6.28;5.10;;;;;;;9.93;58.87;95036.66;5029479;28;20033;-83
2023/10/16 02:07:59;;;;;;;6.32;5.15;;;;;;;9.96;58.57;95029.50;5027902;28;20043;-82
2023/10/16 02:10:25;;;;;;;5.28;4.78;;;;;;;9.95;57.86;95036.97;5012998;28;20029;-83
2023/10/16 02:12:50;;;;;;;7.05;4.88;;;;;;;9.99;57.55;95020.41;5046407;28;20021;-84
2023/10/16 02:15:21;;;;;;;5.40;4.65;;;;;;;9.96;56.93;95019.28;5028952;28;20033;-84
2023/10/16 02:17:49;;;;;;;4.50;4.10;;;;;;;9.98;56.51;95007.91;5029896;28;20069;-84
2023/10/16 02:20:16;;;;;;;6.05;4.22;;;;;;;9.90;56.35;95009.25;5029022;28;20074;-82
2023/10/16 02:22:41;;;;;;;5.43;4.53;;;;;;;9.83;56.83;95016.47;5030087;28;20036;-84
2023/10/16 02:25:08;;;;;;;5.47;4.65;;;;;;;9.89;56.78;95015.97;5029230;28;20407;-84
2023/10/16 02:27:37;;;;;;;7.30;5.22;;;;;;;9.90;56.24;95026.50;5033273;28;20036;-83
2023/10/16 02:30:28;;;;;;;5.63;4.30;;;;;;;9.94;56.23;95035.44;5012074;28;20040;-84
2023/10/16 02:32:53;;;;;;;4.57;4.03;;;;;;;9.92;55.50;95040.59;5049838;28;20032;-84
2023/10/16 02:35:21;;;;;;;4.80;4.20;;;;;;;9.93;55.14;95044.13;5033443;28;20109;-84
2023/10/16 02:38:06;;;;;;;4.50;4.10;;;;;;;9.92;55.46;95045.28;5031757;28;20074;-84
2023/10/16 02:40:32;;;;;;;5.25;4.72;;;;;;;9.89;55.44;95043.41;5033387;28;20480;-84
2023/10/16 02:43:02;;;;;;;4.72;4.25;;;;;;;9.88;55.31;95053.63;5031857;28;20082;-85
2023/10/16 02:45:30;;;;;;;6.72;4.88;;;;;;;9.84;55.54;95047.44;5012982;28;20075;-83
2023/10/16 02:47:57;;;;;;;5.07;4.43;;;;;;;9.89;55.35;95052.44;5032467;28;20059;-85
2023/10/16 02:50:23;;;;;;;4.63;4.22;;;;;;;9.89;55.38;95054.41;5049832;28;20023;-85
2023/10/16 02:52:48;;;;;;;5.75;4.55;;;;;;;9.86;55.64;95047.78;5032998;28;20025;-84
2023/10/16 02:55:15;;;;;;;5.47;4.32;;;;;;;9.86;55.29;95056.00;5031166;28;20572;-84
2023/10/16 02:57:41;;;;;;;5.13;4.20;;;;;;;9.75;55.20;95039.81;5012551;28;20404;-84
2023/10/16 03:00:25;;;;;;;5.10;4.60;;;;;;;9.80;55.16;95058.50;5002595;28;20036;-84
2023/10/16 03:02:51;;;;;;;4.78;4.05;;;;;;;9.86;54.76;95075.25;5004055;28;20036;-83
2023/10/16 03:05:23;;;;;;;4.97;4.47;;;;;;;9.81;55.20;95079.28;5032021;28;20108;-83
2023/10/16 03:07:50;;;;;;;4.93;4.30;;;;;;;9.89;54.61;95087.34;5031757;28;20053;-84
2023/10/16 03:10:16;;;;;;;5.45;4.20;;;;;;;9.84;54.81;95088.63;5032113;28;20022;-84
2023/10/16 03:12:42;;;;;;;5.43;4.55;;;;;;;9.88;54.40;95075.59;5031260;28;20056;-84
2023/10/16 03:15:15;;;;;;;5.75;4.47;;;;;;;9.92;54.31;95091.97;5015838;28;20069;-83
2023/10/16 03:17:41;;;;;;;5.63;4.25;;;;;;;9.93;54.43;95097.06;5030137;28;20575;-83
2023/10/16 03:20:20;;;;;;;4.32;3.88;;;;;;;9.92;54.23;95100.22;5050064;28;20033;-83
2023/10/16 03:22:47;;;;;;;5.25;4.38;;;;;;;9.91;54.17;95101.41;5021107;28;20021;-84
2023/10/16 03:25:25;;;;;;;4.25;3.80;;;;;;;9.91;54.30;95098.66;5030580;28;20083;-83
2023/10/16 03:27:51;;;;;;;4.97;4.05;;;;;;;9.89;54.20;95104.59;5017458;28;20135;-84
2023/10/16 03:30:17;;;;;;;4.43;4.03;;;;;;;9.81;54.20;95095.75;5030108;28;20044;-84
2023/10/16 03:32:42;;;;;;;5.90;4.40;;;;;;;9.80;54.49;95088.72;5031504;28;20021;-83
2023/10/16 03:35:14;;;;;;;7.30;4.45;;;;;;;9.80;54.51;95082.44;5048700;28;20116;-85
2023/10/16 03:37:40;;;;;;;6.97;4.75;;;;;;;9.76;54.67;95090.00;5048398;28;20037;-85
2023/10/16 03:40:11;;;;;;;7.15;4.43;;;;;;;9.78;54.74;95098.59;5049586;28;20037;-85
2023/10/16 03:42:40;;;;;;;5.38;4.88;;;;;;;9.75;54.81;95096.72;5031036;28;20025;-84
2023/10/16 03:45:06;;;;;;;5.85;4.70;;;;;;;9.75;54.79;95108.47;5053123;28;20025;-85
2023/10/16 03:47:33;;;;;;;10.57;5.32;;;;;;;9.74;54.56;95104.16;5030958;28;20021;-84
2023/10/16 03:49:59;;;;;;;6.70;5.03;;;;;;;9.70;54.85;95100.72;5032198;28;20499;-85
2023/10/16 03:52:27;;;;;;;5.10;4.40;;;;;;;9.77;54.79;95114.28;5048712;28;20053;-84
2023/10/16 03:54:53;;;;;;;5.40;4.90;;;;;;;9.74;54.49;95115.13;5031717;28;20029;-85
2023/10/16 03:57:20;;;;;;;7.38;5.07;;;;;;;9.74;54.73;95117.09;5049265;28;20029;-86
2023/10/16 03:59:47;;;;;;;5.40;4.90;;;;;;;9.82;54.46;95115.75;5031237;28;20068;-85
2023/10/16 04:02:19;;;;;;;6.15;4.47;;;;;;;9.83;54.11;95109.06;5033139;28;20032;-85
2023/10/16 04:04:46;;;;;;;5.30;4.75;;;;;;;9.82;54.04;95110.25;5036245;28;20029;-84
2023/10/16 04:07:15;;;;;;;6.95;4.28;;;;;;;9.76;54.12;95112.75;5049815;28;20025;-85
2023/10/16 04:09:49;;;;;;;5.28;4.03;;;;;;;9.72;54.31;95116.75;5032181;28;20024;-86
2023/10/16 04:12:20;;;;;;;7.43;5.10;;;;;;;9.70;54.17;95122.69;5032780;28;20020;-86
2023/10/16 04:14:50;;;;;;;5.45;4.68;;;;;;;9.66;54.16;95116.50;5012964;28;20037;-86
2023/10/16 04:17:16;;;;;;;7.47;4.40;;;;;;;9.64;54.25;95121.66;5032347;28;20479;-86
2023/10/16 04:19:59;;;;;;;5.07;4.57;;;;;;;9.64;54.02;95138.13;5017384;28;20033;-85
2023/10/16 04:22:25;;;;;;;6.30;4.33;;;;;;;9.66;54.13;95145.91;5034339;28;20045;-86
2023/10/16 04:24:59;;;;;;;5.15;4.57;;;;;;;9.63;53.86;95158.50;5013179;28;20287;-87
2023/10/16 04:27:33;;;;;;;6.15;3.95;;;;;;;9.63;53.83;95165.97;5033303;28;20093;-86
2023/10/16 04:35:29;;;;;;;6.18;4.50;;;;;;;9.63;53.63;95174.97;5049046;28;20045;-86
2023/10/16 04:37:55;;;;;;;5.38;4.40;;;;;;;9.65;53.65;95182.81;5034830;28;20098;-86
2023/10/16 04:42:02;;;;;;;8.68;4.20;;;;;;;9.68;53.57;95190.94;5031992;28;20119;-82
2023/10/16 04:44:22;;;;;;;6.68;3.80;;;;;;;9.70;53.38;95198.78;5035328;28;20033;-86
2023/10/16 04:46:16;;;;;;;4.65;3.58;;;;;;;9.74;53.62;95200.22;5019168;28;20068;-82
2023/10/16 04:48:51;;;;;;;6.78;4.03;;;;;;;9.66;53.36;95176.88;5030345;28;20067;-81
2023/10/16 04:51:22;;;;;;;5.53;4.28;;;;;;;9.80;53.28;95209.50;5003068;28;20080;-81
2023/10/16 04:53:58;;;;;;;6.90;5.20;;;;;;;9.76;53.25;95200.59;5009622;28;20025;-82
2023/10/16 04:56:57;;;;;;;6.10;4.13;;;;;;;9.79;53.14;95218.19;5028354;28;20025;-82
2023/10/16 04:59:37;;;;;;;5.43;4.72;;;;;;;9.76;53.14;95224.53;5015276;28;20108;-83
2023/10/16 05:02:19;;;;;;;5.60;4.00;;;;;;;9.73;53.10;95226.16;5016320;28;20047;-83
2023/10/16 05:04:59;;;;;;;5.45;3.83;;;;;;;9.71;53.24;95231.28;5030702;28;20126;-83
2023/10/16 05:10:51;;;;;;;6.00;3.97;;;;;;;9.71;53.11;95252.50;5004716;28;20036;-82
2023/10/16 05:13:55;;;;;;;7.70;3.92;;;;;;;9.77;52.89;95242.56;5047317;28;20416;-85
2023/10/16 05:16:30;;;;;;;4.47;3.50;;;;;;;9.73;52.81;95241.84;5026353;28;20040;-85
2023/10/16 05:19:02;;;;;;;7.28;3.95;;;;;;;9.79;52.89;95260.13;5044542;28;20120;-83
2023/10/16 05:22:02;;;;;;;6.70;4.15;;;;;;;9.79;52.37;95243.66;5047199;28;20029;-84
2023/10/16 06:16:21;;;;;;;6.20;3.10;;;;;;;9.93;49.48;95344.22;5034731;28;20155;-80
2023/10/16 06:18:47;;;;;;;4.85;2.70;;;;;;;9.94;49.52;95331.25;5030667;28;20063;-80
2023/10/16 06:21:17;;;;;;;5.10;3.40;;;;;;;10.02;49.31;95352.66;5031975;28;20028;-80
2023/10/16 06:23:49;;;;;;;5.60;2.70;;;;;;;10.07;48.98;95354.13;5014836;28;20027;-80
2023/10/16 06:26:18;;;;;;;3.40;2.83;;;;;;;10.19;48.92;95360.97;5049233;28;20032;-80
2023/10/16 06:28:47;;;;;;;4.65;2.50;;;;;;;10.17;48.42;95355.13;5031417;28;20021;-80
2023/10/16 06:31:24;;;;;;;4.95;3.20;;;;;;;10.24;48.34;95366.00;5030578;28;20033;-83
2023/10/16 06:33:54;;;;;;;4.85;3.45;;;;;;;10.29;47.91;95354.50;5030385;28;20074;-80
2023/10/16 06:36:20;;;;;;;7.47;2.53;;;;;;;10.31;47.73;95350.13;5014082;28;20033;-80
2023/10/16 06:38:51;;;;;;;5.38;2.67;;;;;;;10.31;47.54;95358.38;5031481;28;20037;-80
2023/10/16 06:41:21;;;;;;;6.75;3.03;;;;;;;10.34;47.57;95356.75;5015385;28;20064;-81
2023/10/16 06:43:50;;;;;;;6.28;2.72;;;;;;;10.38;47.31;95368.47;5031063;28;20090;-80
2023/10/16 06:46:25;;;;;;;4.18;2.80;;;;;;;10.40;47.37;95360.56;5049796;28;20083;-82
2023/10/16 06:48:53;;;;;;;3.28;2.38;;;;;;;10.48;47.43;95372.94;5014140;28;20025;-79
2023/10/16 06:51:25;;;;;;;9.55;3.10;;;;;;;10.50;47.46;95384.28;5014910;28;20152;-79
2023/10/16 06:53:51;;;;;;;4.55;2.70;;;;;;;10.50;47.14;95372.53;5030995;28;20056;-80
2023/10/16 06:56:27;;;;;;;8.35;2.92;;;;;;;10.56;47.50;95379.06;5014899;28;20031;-81
2023/10/16 06:58:54;;;;;;;6.63;2.92;;;;;;;10.58;47.05;95374.69;5015636;28;20029;-80
2023/10/16 07:01:20;;;;;;;5.20;3.13;;;;;;;10.56;46.96;95377.09;5013826;28;20048;-80
2023/10/16 07:03:47;;;;;;;8.82;3.25;;;;;;;10.45;47.14;95379.28;5014429;28;20029;-80
2023/10/16 07:06:14;;;;;;;8.23;3.25;;;;;;;10.49;47.10;95390.19;5047623;28;20510;-81
2023/10/16 07:08:41;;;;;;;4.82;2.88;;;;;;;10.44;46.90;95382.47;5031754;28;20175;-79
2023/10/16 07:11:11;;;;;;;5.55;2.70;;;;;;;10.42;47.16;95376.59;5013189;28;20060;-80
2023/10/16 07:13:38;;;;;;;3.55;2.53;;;;;;;10.43;46.93;95375.41;5015138;28;20538;-80
2023/10/16 07:16:05;;;;;;;6.70;2.85;;;;;;;10.37;46.92;95375.91;5013948;28;20043;-81
2023/10/16 07:18:33;;;;;;;5.90;2.50;;;;;;;10.54;46.79;95373.19;5030038;28;20033;-80
2023/10/16 07:20:59;;;;;;;7.32;3.00;;;;;;;10.66;46.38;95383.53;5031046;28;20079;-80
2023/10/16 07:23:29;;;;;;;5.15;2.88;;;;;;;10.76;46.25;95379.00;5029383;28;20024;-80
2023/10/16 07:25:58;;;;;;;8.30;2.80;;;;;;;10.93;45.80;95388.06;5014381;28;20029;-80
2023/10/16 07:28:26;;;;;;;4.72;2.42;;;;;;;11.02;45.42;95380.78;5013085;28;20052;-80
2023/10/16 07:30:52;;;;;;;5.15;2.53;;;;;;;11.20;45.11;95379.56;5014473;28;20120;-81
2023/10/16 07:33:20;;;;;;;3.95;2.47;;;;;;;11.28;44.67;95372.69;5030489;28;20068;-80
2023/10/16 07:35:47;;;;;;;6.13;2.60;;;;;;;11.41;44.02;95379.84;5030268;28;20511;-80
2023/10/16 07:38:18;;;;;;;4.35;2.72;;;;;;;11.57;43.96;95386.50;5013880;28;20102;-81
2023/10/16 07:40:45;;;;;;;4.28;2.45;;;;;;;11.76;43.56;95393.91;5029766;28;20028;-80
2023/10/16 07:43:13;;;;;;;7.45;2.40;;;;;;;12.00;42.41;95391.72;5014300;28;20025;-80
2023/10/16 07:45:44;;;;;;;5.28;2.38;;;;;;;12.22;41.76;95386.38;5029361;28;20025;-80
2023/10/16 07:48:23;;;;;;;3.85;2.38;;;;;;;12.46;41.26;95389.66;5031345;28;20106;-80
2023/10/16 07:50:50;;;;;;;3.35;2.40;;;;;;;12.81;40.05;95395.31;5031844;28;20086;-82
2023/10/16 07:53:17;;;;;;;5.05;2.42;;;;;;;12.99;39.53;95392.78;5029236;28;20040;-80
2023/10/16 07:55:50;;;;;;;3.30;2.30;;;;;;;13.23;39.25;95387.72;5030926;28;20025;-82
2023/10/16 07:58:23;;;;;;;5.07;2.28;;;;;;;13.57;38.60;95384.25;5029308;28;20033;-80
2023/10/16 08:03:36;;;;;;;5.53;2.30;;;;;;;14.28;36.61;95383.78;5031882;28;20105;-83
2023/10/16 08:06:06;;;;;;;4.30;2.20;;;;;;;14.47;36.56;95381.94;5047400;28;20044;-82
2023/10/16 08:08:38;;;;;;;2.55;1.98;;;;;;;14.83;35.98;95375.81;5013721;28;20056;-83
2023/10/16 08:11:18;;;;;;;4.45;2.08;;;;;;;15.26;34.54;95374.94;5012612;28;20017;-82
2023/10/16 08:13:47;;;;;;;3.83;2.55;;;;;;;15.53;34.34;95367.91;5034145;28;20047;-82
2023/10/16 08:16:18;;;;;;;2.95;1.85;;;;;;;15.90;32.76;95369.53;5029591;28;20163;-80
2023/10/16 08:18:47;;;;;;;4.40;1.98;;;;;;;16.21;32.74;95368.59;5029991;28;20487;-80
2023/10/16 08:21:23;;;;;;;2.63;1.42;;;;;;;16.59;31.82;95373.66;5012964;28;20048;-81
2023/10/16 08:23:56;;;;;;;5.47;2.10;;;;;;;16.84;31.45;95388.41;5013089;28;20027;-81
2023/10/16 08:26:41;;;;;;;3.88;1.98;;;;;;;17.16;30.29;95384.16;5013594;28;20033;-80
2023/10/16 08:32:14;;;;;;;4.18;1.52;;;;;;;18.01;29.36;95376.44;5031162;28;20028;-82
2023/10/16 08:34:35;;;;;;;4.93;1.80;;;;;;;18.41;28.82;95391.88;5033477;28;20045;-82
2023/10/16 08:37:03;;;;;;;12.77;2.78;;;;;;;18.82;27.37;95381.78;5012515;28;20123;-83
2023/10/16 08:39:36;;;;;;;6.18;1.65;;;;;;;19.14;26.89;95377.22;5030759;28;20542;-81
2023/10/16 08:42:10;;;;;;;4.78;1.45;;;;;;;19.85;25.93;95389.19;5029998;28;20029;-82
2023/10/16 08:44:36;;;;;;;3.80;1.90;;;;;;;20.76;25.02;95383.38;5031431;28;20049;-82
2023/10/16 08:49:27;;;;;;;4.57;2.05;;;;;;;22.72;22.02;95390.97;5029308;28;20065;-83
2023/10/16 08:51:54;;;;;;;4.32;2.08;;;;;;;23.32;21.12;95393.59;5029836;28;20033;-83
2023/10/16 08:57:07;;;;;;;4.18;1.80;;;;;;;24.56;19.60;95378.00;5032420;28;20067;-83
2023/10/16 08:59:34;;;;;;;5.03;2.20;;;;;;;25.33;19.34;95382.88;5046115;28;20032;-83
2023/10/16 09:02:01;;;;;;;3.85;1.92;;;;;;;25.54;18.62;95381.16;5046345;28;20083;-83
2023/10/16 09:04:27;;;;;;;8.93;2.10;;;;;;;26.08;18.42;95383.19;5028524;28;20029;-83
2023/10/16 09:06:53;;;;;;;4.25;1.52;;;;;;;26.59;17.83;95382.59;5027550;28;20048;-83
2023/10/16 09:09:20;;;;;;;3.95;1.77;;;;;;;26.91;17.43;95391.91;5012511;28;20025;-83
2023/10/16 09:11:47;;;;;;;4.95;1.52;;;;;;;27.12;17.16;95380.84;5027516;28;20067;-83
2023/10/16 09:14:17;;;;;;;4.93;1.50;;;;;;;27.79;16.60;95370.53;5028821;28;20056;-83
2023/10/16 09:16:45;;;;;;;3.35;1.50;;;;;;;28.39;16.01;95380.44;5028109;28;20491;-82
2023/10/16 09:19:14;;;;;;;4.50;1.80;;;;;;;28.96;15.45;95383.59;5011973;28;20039;-83
2023/10/16 09:21:43;;;;;;;7.22;2.00;;;;;;;28.63;15.48;95380.19;5011895;28;20067;-83
2023/10/16 09:24:11;;;;;;;2.35;1.60;;;;;;;28.24;15.82;95378.16;5028835;28;20025;-83
2023/10/16 09:26:44;;;;;;;4.70;2.05;;;;;;;28.38;15.62;95381.75;5029817;28;20036;-83
2023/10/16 09:29:20;;;;;;;2.38;1.50;;;;;;;28.45;15.55;95376.22;5028871;28;20498;-82
2023/10/16 09:31:46;;;;;;;6.15;1.80;;;;;;;28.42;15.73;95380.13;5030101;28;20120;-83
2023/10/16 09:34:19;;;;;;;4.72;2.70;;;;;;;28.50;15.43;95380.19;5010399;28;20143;-83
2023/10/16 09:37:15;;;;;;;3.53;1.95;;;;;;;29.00;15.49;95378.38;5011849;28;20031;-82
2023/10/16 09:39:37;;;;;;;3.85;2.00;;;;;;;29.16;15.35;95359.50;5031933;28;20037;-82
2023/10/16 09:42:12;;;;;;;4.03;1.70;;;;;;;29.04;15.44;95364.66;5010693;28;20538;-83
2023/10/16 09:44:44;;;;;;;5.22;1.60;;;;;;;29.80;14.91;95370.28;5029149;28;20537;-83
2023/10/16 09:47:25;;;;;;;3.33;1.70;;;;;;;29.66;14.57;95361.09;5028082;28;20029;-82
2023/10/16 09:49:52;;;;;;;3.53;1.92;;;;;;;29.66;14.84;95363.94;5029734;28;20021;-82
2023/10/16 09:52:20;;;;;;;4.18;2.00;;;;;;;29.69;14.43;95354.31;5028582;28;20021;-82
2023/10/16 09:54:48;;;;;;;3.10;1.55;;;;;;;30.32;14.39;95349.28;5010563;28;20029;-81
2023/10/16 09:57:18;;;;;;;3.90;1.60;;;;;;;30.77;13.99;95353.66;5028636;28;20025;-82
2023/10/16 09:59:44;;;;;;;3.55;1.45;;;;;;;30.97;13.62;95354.88;5027408;28;20068;-82
2023/10/16 10:02:25;;;;;;;5.43;1.48;;;;;;;31.16;13.52;95346.00;5045962;28;20134;-82
2023/10/16 10:05:08;;;;;;;3.35;1.80;;;;;;;31.16;13.44;95349.59;5029453;28;20048;-83
2023/10/16 10:07:38;;;;;;;3.97;1.50;;;;;;;31.47;13.25;95349.66;5025230;28;20134;-83
2023/10/16 10:12:57;;;;;;;4.47;2.00;;;;;;;32.25;12.51;95349.06;5030147;28;20406;-83
2023/10/16 10:15:30;;;;;;;2.88;1.45;;;;;;;32.11;12.35;95344.91;5027952;28;20021;-82
2023/10/16 10:18:01;;;;;;;6.35;1.55;;;;;;;31.98;12.56;95343.03;5028331;28;20518;-83
2023/10/16 10:20:31;;;;;;;4.47;1.20;;;;;;;32.07;12.77;95333.19;5010946;28;20021;-83
2023/10/16 10:22:58;;;;;;;3.40;2.08;;;;;;;32.35;12.50;95350.03;4996877;28;20479;-84
2023/10/16 10:25:37;;;;;;;4.97;2.03;;;;;;;32.47;12.13;95339.75;5026735;28;20103;-83
2023/10/16 10:28:23;;;;;;;4.53;2.47;;;;;;;32.83;11.94;95320.78;5012578;28;20033;-83
2023/10/16 10:30:49;;;;;;;5.32;2.05;;;;;;;33.26;11.74;95325.28;5027588;28;20062;-83
2023/10/16 10:33:42;;;;;;;3.38;1.85;;;;;;;33.35;11.58;95324.69;5026781;28;20033;-83
2023/10/16 10:36:39;;;;;;;5.25;2.67;;;;;;;33.77;11.64;95318.28;5028967;28;20041;-84
2023/10/16 10:39:38;;;;;;;2.97;1.50;;;;;;;33.89;11.55;95305.03;4964051;28;20061;-84
2023/10/16 10:42:05;;;;;;;3.38;1.95;;;;;;;34.10;11.16;95309.63;4963856;28;20031;-84
2023/10/16 10:44:32;;;;;;;2.60;1.30;;;;;;;34.39;10.96;95302.06;4948959;28;20041;-84
2023/10/16 10:47:02;;;;;;;2.65;1.42;;;;;;;34.56;10.92;95298.47;4933734;28;20145;-84
2023/10/16 10:49:35;;;;;;;1.70;0.98;;;;;;;34.86;10.99;95297.31;4953048;28;20038;-83
2023/10/16 10:52:06;;;;;;;3.45;1.88;;;;;;;35.46;10.69;95294.22;4967409;28;20560;-84
2023/10/16 10:54:33;;;;;;;4.50;1.73;;;;;;;36.16;9.90;95292.44;4951622;28;20035;-84
2023/10/16 10:57:04;;;;;;;2.78;1.70;;;;;;;36.81;8.86;95285.78;4936122;28;20034;-84
2023/10/16 10:59:41;;;;;;;4.00;2.40;;;;;;;37.25;8.67;95289.63;4950687;28;20034;-84
2023/10/16 11:02:22;;;;;;;5.53;2.33;;;;;;;37.74;8.66;95282.34;4936139;28;20066;-84
2023/10/16 11:04:58;;;;;;;4.95;3.03;;;;;;;37.41;8.86;95279.34;4936161;28;20031;-84
2023/10/16 11:07:39;;;;;;;3.88;2.20;;;;;;;37.48;8.79;95278.38;4951416;28;20082;-84
2023/10/16 11:10:05;;;;;;;4.15;1.80;;;;;;;37.48;8.72;95278.38;4951743;28;20078;-84
2023/10/16 11:12:40;;;;;;;4.53;2.10;;;;;;;37.92;8.90;95285.72;4966474;28;20035;-83
2023/10/16 11:15:15;;;;;;;3.67;2.05;;;;;;;37.92;8.66;95280.00;4996225;28;20462;-84
2023/10/16 11:17:40;;;;;;;4.85;2.85;;;;;;;37.69;8.63;95269.09;5014511;28;20391;-82
2023/10/16 11:22:45;;;;;;;6.20;3.40;;;;;;;37.78;8.64;95273.25;5032300;28;20041;-83
2023/10/16 11:25:13;;;;;;;5.53;2.60;;;;;;;36.80;9.18;95281.41;5014004;28;20078;-84
2023/10/16 11:27:43;;;;;;;6.65;2.00;;;;;;;36.39;9.50;95266.97;5030738;28;20552;-83
2023/10/16 11:30:11;;;;;;;7.18;4.13;;;;;;;33.60;10.91;95258.38;5029457;28;20112;-83
2023/10/16 11:32:45;;;;;;;4.43;2.60;;;;;;;31.72;12.52;95248.31;5031063;28;20029;-82
2023/10/16 11:35:15;;;;;;;3.35;1.58;;;;;;;30.41;13.17;95252.34;5047600;28;20037;-83
2023/10/16 11:37:50;;;;;;;4.30;2.03;;;;;;;29.44;14.04;95249.13;5030718;28;20033;-83
2023/10/16 11:40:24;;;;;;;5.40;2.20;;;;;;;28.43;14.89;95256.47;5030908;28;20025;-82
2023/10/16 11:42:52;;;;;;;2.20;1.60;;;;;;;27.50;15.64;95242.41;5047081;28;20029;-82
2023/10/16 11:45:21;;;;;;;3.25;1.70;;;;;;;26.62;16.05;95254.69;5048650;28;20082;-82
2023/10/16 11:48:18;;;;;;;4.07;2.08;;;;;;;26.10;17.02;95251.03;5028989;28;20053;-81
2023/10/16 11:50:38;;;;;;;6.95;3.10;;;;;;;25.65;17.51;95250.81;5047867;28;20048;-81
2023/10/16 11:53:07;;;;;;;2.87;1.60;;;;;;;25.14;17.50;95244.94;5029715;28;20511;-82
2023/10/16 11:55:36;;;;;;;5.63;3.05;;;;;;;24.52;18.02;95241.88;5029719;28;20025;-81
2023/10/16 11:58:08;;;;;;;4.63;2.40;;;;;;;23.78;18.77;95232.31;5013036;28;20025;-80
2023/10/16 12:00:42;;;;;;;5.77;1.70;;;;;;;23.31;18.79;95243.41;5028742;28;20064;-82
2023/10/16 12:03:14;;;;;;;3.85;1.40;;;;;;;22.86;19.22;95223.84;5031109;28;20024;-82
2023/10/16 12:05:42;;;;;;;7.32;3.33;;;;;;;22.79;19.91;95233.53;5013301;28;20021;-83
2023/10/16 12:08:08;;;;;;;7.55;3.60;;;;;;;22.60;19.64;95229.72;5029579;28;20029;-82
2023/10/16 12:10:35;;;;;;;4.63;2.35;;;;;;;22.18;19.83;95219.50;5029863;28;20472;-82
2023/10/16 12:13:03;;;;;;;4.97;3.03;;;;;;;21.83;20.74;95229.06;5028536;28;20041;-80
2023/10/16 12:15:31;;;;;;;3.63;2.63;;;;;;;21.53;20.77;95222.34;5013660;28;20035;-82
2023/10/16 12:17:57;;;;;;;4.35;2.28;;;;;;;21.45;21.46;95222.06;5028649;28;20112;-82
2023/10/16 12:20:26;;;;;;;6.28;2.20;;;;;;;21.36;21.58;95217.44;5029822;28;20092;-82
2023/10/16 12:22:55;;;;;;;4.38;1.70;;;;;;;21.31;21.17;95223.75;5012813;28;20021;-82
2023/10/16 12:25:21;;;;;;;4.65;2.00;;;;;;;21.16;21.06;95206.38;5029215;28;20025;-82
2023/10/16 12:27:48;;;;;;;5.03;1.75;;;;;;;20.99;20.65;95211.09;5029629;28;20051;-82
2023/10/16 12:30:14;;;;;;;6.45;3.22;;;;;;;20.78;21.75;95224.44;5028154;28;20108;-82
2023/10/16 12:32:40;;;;;;;3.90;2.47;;;;;;;20.60;21.59;95220.00;5013066;28;20025;-82
2023/10/16 12:35:08;;;;;;;4.38;1.40;;;;;;;20.27;21.55;95220.44;5027592;28;20053;-81
2023/10/16 12:37:34;;;;;;;2.45;1.88;;;;;;;20.08;21.85;95208.84;5013094;28;20025;-81
2023/10/16 12:40:00;;;;;;;3.67;1.95;;;;;;;19.92;22.12;95201.09;5027842;28;20032;-81
2023/10/16 12:42:27;;;;;;;4.38;1.70;;;;;;;19.86;21.61;95201.03;5046869;28;20060;-81
2023/10/16 12:44:54;;;;;;;2.85;1.60;;;;;;;19.75;21.38;95196.09;5012281;28;20017;-81
2023/10/16 12:47:19;;;;;;;4.05;1.55;;;;;;;19.65;21.45;95196.72;5046304;28;20055;-82
2023/10/16 12:49:45;;;;;;;4.03;2.00;;;;;;;19.45;21.80;95194.72;5012898;28;20465;-81
2023/10/16 12:52:10;;;;;;;4.90;1.50;;;;;;;19.37;22.18;95205.50;5045430;28;20534;-82
2023/10/16 12:54:43;;;;;;;3.08;1.73;;;;;;;19.37;22.26;95192.34;5047659;28;20057;-81
2023/10/16 12:57:09;;;;;;;5.53;1.50;;;;;;;19.19;22.44;95200.22;5028759;28;20029;-81
2023/10/16 12:59:36;;;;;;;2.55;1.83;;;;;;;19.10;22.26;95196.31;5029024;28;20036;-81
2023/10/16 13:02:04;;;;;;;4.05;1.77;;;;;;;19.00;22.29;95194.91;5012092;28;20028;-82
2023/10/16 13:04:33;;;;;;;2.50;1.40;;;;;;;18.94;22.14;95193.31;5027975;28;20082;-81
2023/10/16 13:07:00;;;;;;;3.50;1.50;;;;;;;18.93;22.25;95191.78;5029220;28;20033;-82
2023/10/16 13:09:25;;;;;;;4.65;2.33;;;;;;;18.83;22.63;95189.13;5027324;28;20021;-81
2023/10/16 13:11:51;;;;;;;3.45;1.83;;;;;;;18.77;22.47;95193.06;5012911;28;20036;-81